Quick Links (Output Below):   Max & Min Temps   /   Climate Reports   /   Zone Forecasts
River Forecasts   /   Forestry Forecasts   /   Aviation Forecasts   /   Radars   /   Features

Terminal Aerodrome Forecast (Hot Springs)

Pick a Site:
Arkadelphia | El Dorado | Fayetteville | Fort Smith | Harrison | Highfill | Hot Springs | Jonesboro
Little Rock | Monticello | Mountain Home | Pine Bluff | Texarkana
 Forecast 

KHOT 270534Z 2706/2806 02004KT P6SM SCT100
     FM271500 06007KT P6SM BKN100
     FM280000 09005KT P6SM OVC060 PROB30 2802/2806 5SM -SN=


 Latest METARs (Observations) 
How to Decode METARs
07Z KHOT 270653Z AUTO 00000KT 10SM CLR M03/M11 A3046 RMK AO2 SLP318
         T10281111
         
06Z KHOT 270553Z AUTO 04004KT 10SM CLR M02/M11 A3045 RMK AO2 SLP316
         T10221106 10022 21022 400561022 51019
         
05Z KHOT 270453Z AUTO 02003KT 10SM CLR M02/M10 A3043 RMK AO2 SLP309
         T10171100
         
04Z KHOT 270353Z AUTO VRB05KT 10SM CLR M01/M10 A3043 RMK AO2 SLP307
         T10111100
         
03Z KHOT 270253Z AUTO 01004KT 10SM CLR M01/M09 A3039 RMK AO2 SLP296
         T10061094 51034
         
02Z KHOT 270153Z AUTO 35004KT 10SM CLR 01/M09 A3036 RMK AO2 SLP285
         T00061089
         
01Z KHOT 270053Z AUTO 35004KT 10SM CLR 01/M07 A3033 RMK AO2 SLP272
         T00111072
         
00Z KHOT 262353Z AUTO 35009KT 10SM CLR 02/M07 A3029 RMK AO2 SLP261
         T00221072 10056 20017 53022
         
***** Today's Observations (Above) *****


23Z KHOT 262253Z AUTO 35011KT 10SM SCT120 04/M06 A3027 RMK AO2 SLP253
         T00441061
         
22Z KHOT 262153Z AUTO 03005KT 10SM FEW045 05/M06 A3025 RMK AO2 SLP245
         T00501061
         
***** Yesterday's Observations (Above) *****


Back to Main Page
http://www.srh.noaa.gov/lzk/qfcst.php

USA.gov is the U.S. government's official web portal to all federal, state and local government web resources and services.